Time;durP1;ratioP1;P1;durP2;ratioP2;P2;SDS_P1;SDS_P2;PMS_P1;PMS_P2;Temp;Humidity;BMP_temperature;BMP_pressure;BME280_temperature;BME280_humidity;BME280_pressure;Samples;Min_cycle;Max_cycle;Signal;HPM_P1;HPM_P2
2022/02/07 00:00:32;;;;;;;0.70;0.50;;;2.80;98.00;;;;;;5031087;28;20454;-71
2022/02/07 00:05:31;;;;;;;1.40;0.60;;;2.80;98.20;;;;;;5027450;28;20507;-72
2022/02/07 00:07:57;;;;;;;0.82;0.60;;;2.70;98.20;;;;;;5025928;28;21346;-74
2022/02/07 00:10:24;;;;;;;0.70;0.60;;;2.70;98.30;;;;;;5029187;28;20243;-73
2022/02/07 00:12:50;;;;;;;0.60;0.50;;;2.70;98.40;;;;;;5026791;28;20426;-73
2022/02/07 00:15:17;;;;;;;1.17;0.60;;;2.70;98.40;;;;;;5031328;28;20177;-75
2022/02/07 00:17:44;;;;;;;0.85;0.60;;;2.70;98.30;;;;;;5031483;28;20221;-73
2022/02/07 00:20:17;;;;;;;0.60;0.60;;;2.70;98.40;;;;;;5029202;28;20588;-74
2022/02/07 00:22:43;;;;;;;0.80;0.60;;;2.70;98.20;;;;;;5031542;28;20664;-73
2022/02/07 00:25:09;;;;;;;1.20;0.53;;;2.70;98.10;;;;;;5030007;28;20439;-75
2022/02/07 00:27:36;;;;;;;1.13;0.70;;;2.70;98.10;;;;;;5031823;28;20464;-75
2022/02/07 00:30:04;;;;;;;1.70;0.63;;;2.70;97.90;;;;;;5031103;28;20554;-74
2022/02/07 00:32:30;;;;;;;1.70;0.70;;;2.80;98.00;;;;;;5031553;28;20510;-73
2022/02/07 00:34:56;;;;;;;0.70;0.50;;;2.90;97.90;;;;;;5029862;28;20512;-73
2022/02/07 00:37:24;;;;;;;1.10;0.97;;;3.00;97.70;;;;;;5031383;28;20189;-74
2022/02/07 00:39:57;;;;;;;0.80;0.63;;;3.10;97.70;;;;;;5030554;28;20240;-74
2022/02/07 00:42:31;;;;;;;1.33;0.63;;;3.20;97.70;;;;;;5030970;28;20427;-73
2022/02/07 00:45:01;;;;;;;0.63;0.60;;;3.20;97.60;;;;;;5030489;28;21022;-73
2022/02/07 00:47:27;;;;;;;0.60;0.53;;;3.20;97.60;;;;;;5027421;28;21045;-74
2022/02/07 00:49:54;;;;;;;0.70;0.50;;;3.20;97.30;;;;;;5033662;28;20513;-71
2022/02/07 00:52:23;;;;;;;3.47;0.80;;;3.20;96.60;;;;;;5031516;28;20173;-72
2022/02/07 00:54:50;;;;;;;1.40;0.60;;;3.20;96.40;;;;;;5032735;28;20462;-73
2022/02/07 00:57:16;;;;;;;1.07;0.60;;;3.20;96.70;;;;;;5032091;28;20435;-72
2022/02/07 00:59:41;;;;;;;2.73;0.53;;;3.20;96.60;;;;;;5032863;28;20451;-74
2022/02/07 01:02:07;;;;;;;1.87;0.70;;;3.10;96.50;;;;;;5031172;28;20412;-73
2022/02/07 01:04:33;;;;;;;0.70;0.60;;;3.10;96.50;;;;;;5032890;28;20215;-73
2022/02/07 01:07:01;;;;;;;1.90;0.70;;;3.10;96.70;;;;;;5032390;28;20663;-72
2022/02/07 01:09:36;;;;;;;0.90;0.50;;;3.10;96.80;;;;;;5032126;28;20204;-73
2022/02/07 01:12:14;;;;;;;1.02;0.70;;;3.10;96.80;;;;;;5031647;28;20420;-72
2022/02/07 01:15:11;;;;;;;0.80;0.60;;;3.10;96.60;;;;;;5027778;28;20180;-74
2022/02/07 01:50:22;;;;;;;1.00;0.67;;;3.60;94.50;;;;;;5031375;28;20467;-72
2022/02/07 01:57:53;;;;;;;2.30;0.60;;;3.70;93.80;;;;;;5032237;28;20934;-72
2022/02/07 02:00:19;;;;;;;1.80;0.70;;;3.80;93.70;;;;;;5025437;28;20229;-71
2022/02/07 02:02:46;;;;;;;1.33;0.60;;;3.80;93.50;;;;;;5031164;28;20436;-73
2022/02/07 02:05:12;;;;;;;1.60;0.90;;;3.80;93.30;;;;;;5029533;28;20428;-73
2022/02/07 02:07:40;;;;;;;1.03;0.70;;;3.90;93.00;;;;;;5034363;28;20479;-74
2022/02/07 02:10:06;;;;;;;4.33;0.93;;;3.90;92.70;;;;;;5027181;28;20451;-71
2022/02/07 02:12:37;;;;;;;1.50;0.70;;;4.00;91.90;;;;;;5037775;28;20416;-71
2022/02/07 02:15:21;;;;;;;2.33;1.13;;;4.10;91.50;;;;;;5033362;28;20432;-71
2022/02/07 02:34:52;;;;;;;1.37;0.70;;;4.40;90.30;;;;;;5028715;28;20418;-70
2022/02/07 02:48:15;;;;;;;1.23;0.93;;;4.50;89.90;;;;;;5066740;28;20489;-72
2022/02/07 02:50:42;;;;;;;2.77;0.90;;;4.20;91.30;;;;;;5069003;28;20453;-75
2022/02/07 02:53:14;;;;;;;1.00;0.80;;;4.00;92.10;;;;;;5051873;28;20423;-74
2022/02/07 02:55:42;;;;;;;1.47;1.00;;;3.90;92.50;;;;;;5065699;28;20456;-71
2022/02/07 02:58:10;;;;;;;8.73;1.27;;;3.90;92.90;;;;;;5055312;28;20418;-73
2022/02/07 03:00:37;;;;;;;1.50;0.90;;;3.90;93.10;;;;;;5035806;28;20474;-73
2022/02/07 03:03:03;;;;;;;2.13;0.97;;;3.90;93.30;;;;;;5053631;28;20431;-71
2022/02/07 03:05:29;;;;;;;2.20;0.90;;;3.90;93.00;;;;;;5051864;28;20421;-74
2022/02/07 03:07:56;;;;;;;7.40;1.23;;;3.90;93.30;;;;;;5057955;28;20485;-72
2022/02/07 03:10:40;;;;;;;2.00;1.00;;;3.90;93.70;;;;;;5052478;28;20450;-73
2022/02/07 03:18:19;;;;;;;1.50;1.00;;;3.90;93.70;;;;;;5049322;28;20450;-73
2022/02/07 03:20:45;;;;;;;2.47;1.20;;;3.90;93.70;;;;;;5051945;28;20488;-71
2022/02/07 03:23:11;;;;;;;2.43;0.90;;;4.00;93.40;;;;;;5030280;28;20198;-71
2022/02/07 03:25:36;;;;;;;4.10;1.37;;;4.00;93.20;;;;;;5032226;28;20439;-71
2022/02/07 03:28:03;;;;;;;2.93;1.10;;;4.00;92.70;;;;;;5039585;28;20205;-72
2022/02/07 03:30:29;;;;;;;2.13;1.10;;;4.10;92.20;;;;;;5038717;28;20216;-72
2022/02/07 03:32:54;;;;;;;4.80;1.40;;;4.10;92.20;;;;;;5040887;28;20821;-72
2022/02/07 03:35:20;;;;;;;2.00;1.33;;;4.10;92.40;;;;;;5033673;28;20185;-72
2022/02/07 03:37:47;;;;;;;3.77;1.20;;;4.10;92.60;;;;;;5037162;28;20208;-73
2022/02/07 03:40:13;;;;;;;2.33;1.10;;;4.10;92.30;;;;;;5038034;28;20535;-72
2022/02/07 03:42:39;;;;;;;3.63;1.20;;;4.20;91.90;;;;;;5033728;28;20450;-73
2022/02/07 03:45:06;;;;;;;6.60;1.00;;;4.30;91.10;;;;;;5033968;28;20471;-73
2022/02/07 03:47:32;;;;;;;1.80;0.67;;;4.30;90.90;;;;;;5038622;28;20676;-74
2022/02/07 03:49:58;;;;;;;4.03;0.77;;;3.50;91.60;;;;;;5040026;28;20455;-74
2022/02/07 03:52:26;;;;;;;1.60;0.70;;;3.10;93.30;;;;;;5038298;28;20511;-72
2022/02/07 03:54:52;;;;;;;1.20;0.60;;;2.70;94.60;;;;;;5035953;28;20577;-71
2022/02/07 03:57:18;;;;;;;6.10;0.90;;;2.40;95.60;;;;;;5030461;28;20189;-71
2022/02/07 03:59:44;;;;;;;0.93;0.57;;;2.20;96.00;;;;;;5028539;28;20258;-72
2022/02/07 04:02:11;;;;;;;3.80;0.80;;;2.10;96.40;;;;;;5025248;28;20231;-73
2022/02/07 04:04:37;;;;;;;0.75;0.60;;;2.00;96.80;;;;;;5029586;28;20243;-70
2022/02/07 04:07:06;;;;;;;2.67;0.70;;;2.00;97.00;;;;;;5029681;28;20189;-71
2022/02/07 04:09:37;;;;;;;1.50;0.70;;;1.80;97.00;;;;;;5028930;28;20671;-72
2022/02/07 04:12:09;;;;;;;1.17;0.80;;;1.90;97.30;;;;;;5028725;28;20235;-72
2022/02/07 04:14:35;;;;;;;0.95;0.70;;;1.80;97.40;;;;;;5026759;28;20178;-71
2022/02/07 04:17:01;;;;;;;1.93;0.83;;;1.80;97.10;;;;;;5029471;28;20223;-72
2022/02/07 04:19:34;;;;;;;1.93;0.90;;;1.80;97.00;;;;;;5028992;28;20201;-71
2022/02/07 04:22:03;;;;;;;2.22;0.82;;;1.80;96.80;;;;;;5028630;28;20522;-71
2022/02/07 04:24:29;;;;;;;1.35;0.80;;;1.80;96.60;;;;;;5027701;28;20542;-73
2022/02/07 04:26:55;;;;;;;3.47;0.80;;;1.90;95.70;;;;;;5028068;28;20212;-70
2022/02/07 04:29:21;;;;;;;4.00;1.07;;;1.90;95.60;;;;;;5028911;28;20197;-71
2022/02/07 04:31:46;;;;;;;1.50;1.00;;;1.90;95.60;;;;;;5028302;28;20424;-72
2022/02/07 04:34:13;;;;;;;3.67;1.10;;;1.90;95.40;;;;;;5025648;28;20990;-71
2022/02/07 04:36:43;;;;;;;1.05;0.93;;;2.00;95.10;;;;;;5027423;28;20535;-70
2022/02/07 04:39:09;;;;;;;1.73;0.70;;;2.00;95.00;;;;;;5031415;28;20262;-70
2022/02/07 04:41:35;;;;;;;1.50;0.80;;;2.10;94.50;;;;;;5030610;28;20674;-71
2022/02/07 04:44:06;;;;;;;1.73;0.50;;;2.10;94.20;;;;;;5030630;28;20181;-71
2022/02/07 04:59:51;;;;;;;2.35;1.00;;;2.10;93.00;;;;;;5032808;28;20702;-72
2022/02/07 05:04:58;;;;;;;2.55;0.85;;;2.20;92.70;;;;;;5031863;28;20185;-72
2022/02/07 05:15:36;;;;;;;3.10;1.27;;;2.20;92.70;;;;;;5030891;28;20223;-72
2022/02/07 05:18:02;;;;;;;3.77;1.30;;;2.20;92.80;;;;;;5031872;28;20189;-70
2022/02/07 05:20:28;;;;;;;1.97;1.17;;;2.20;92.90;;;;;;5034676;28;21024;-75
2022/02/07 05:22:53;;;;;;;4.90;1.33;;;2.20;92.50;;;;;;5040189;28;20427;-70
2022/02/07 05:25:19;;;;;;;3.60;1.20;;;2.30;92.10;;;;;;5036476;28;20185;-72
2022/02/07 05:27:45;;;;;;;3.37;1.13;;;2.20;92.20;;;;;;5036295;28;20599;-70
2022/02/07 05:30:11;;;;;;;4.27;1.40;;;2.30;92.10;;;;;;5032630;28;20209;-70
2022/02/07 05:32:37;;;;;;;3.47;1.50;;;2.30;91.90;;;;;;5034429;28;20691;-73
2022/02/07 05:35:04;;;;;;;1.73;1.03;;;2.30;91.80;;;;;;5032597;28;20426;-70
2022/02/07 05:37:31;;;;;;;5.87;1.70;;;2.30;91.90;;;;;;5032171;28;20432;-70
2022/02/07 05:40:05;;;;;;;1.70;1.20;;;2.30;92.00;;;;;;5031631;28;20447;-69
2022/02/07 05:42:31;;;;;;;8.68;1.25;;;2.30;92.00;;;;;;5030812;28;20181;-72
2022/02/07 05:44:56;;;;;;;3.40;1.10;;;2.30;91.80;;;;;;5031316;28;20917;-71
2022/02/07 05:47:22;;;;;;;7.37;1.60;;;2.40;91.80;;;;;;5031953;28;20219;-70
2022/02/07 05:49:48;;;;;;;1.90;1.20;;;2.40;91.80;;;;;;5030180;28;20848;-73
2022/02/07 05:52:14;;;;;;;4.70;1.50;;;2.40;91.80;;;;;;5031685;28;20456;-72
2022/02/07 05:54:40;;;;;;;3.93;1.37;;;2.40;91.70;;;;;;5029833;28;20177;-71
2022/02/07 05:57:06;;;;;;;4.30;1.30;;;2.50;91.10;;;;;;5031145;28;20181;-70
2022/02/07 05:59:32;;;;;;;7.53;1.50;;;2.50;90.90;;;;;;5031142;28;20251;-71
2022/02/07 06:01:58;;;;;;;2.70;1.30;;;2.60;90.70;;;;;;5024513;28;20189;-72
2022/02/07 06:04:23;;;;;;;4.63;1.93;;;2.60;90.20;;;;;;5029846;28;20812;-71
2022/02/07 06:06:49;;;;;;;4.70;1.40;;;2.70;90.00;;;;;;5026537;28;20354;-69
2022/02/07 06:09:15;;;;;;;9.13;1.43;;;2.70;89.20;;;;;;5030172;28;20235;-72
2022/02/07 06:11:40;;;;;;;2.40;1.17;;;2.70;89.00;;;;;;5035540;28;20185;-71
2022/02/07 06:14:06;;;;;;;3.77;1.33;;;2.70;89.50;;;;;;5037170;28;20189;-72
2022/02/07 06:16:32;;;;;;;7.13;1.23;;;2.80;89.30;;;;;;5034181;28;20192;-71
2022/02/07 06:18:59;;;;;;;6.57;1.47;;;2.80;89.30;;;;;;5037608;28;20576;-71
2022/02/07 06:21:26;;;;;;;6.53;1.40;;;2.80;89.00;;;;;;5033843;28;20446;-70
2022/02/07 06:23:54;;;;;;;4.63;2.40;;;2.90;88.90;;;;;;5031539;28;20427;-70
2022/02/07 06:26:19;;;;;;;4.95;1.23;;;3.00;88.60;;;;;;5029471;28;20460;-71
2022/02/07 06:28:45;;;;;;;4.03;1.37;;;3.00;88.70;;;;;;5030599;28;20276;-73
2022/02/07 06:31:11;;;;;;;5.07;1.43;;;3.00;88.90;;;;;;5030851;28;20177;-72
2022/02/07 06:33:37;;;;;;;6.17;1.43;;;3.00;88.70;;;;;;5030938;28;20204;-72
2022/02/07 06:36:03;;;;;;;2.20;1.10;;;3.00;89.20;;;;;;5029203;28;20683;-70
2022/02/07 06:38:28;;;;;;;4.20;1.40;;;3.00;89.20;;;;;;5030870;28;20185;-72
2022/02/07 06:40:54;;;;;;;5.67;1.30;;;3.00;89.30;;;;;;5031119;28;21019;-70
2022/02/07 06:43:20;;;;;;;1.97;1.30;;;2.90;89.30;;;;;;5029629;28;20226;-71
2022/02/07 06:45:46;;;;;;;6.53;1.40;;;3.00;89.50;;;;;;5028967;28;20486;-71
2022/02/07 06:48:12;;;;;;;4.63;1.60;;;3.00;89.00;;;;;;5031631;28;20209;-73
2022/02/07 06:50:38;;;;;;;7.43;1.53;;;3.00;88.90;;;;;;5029361;28;20233;-71
2022/02/07 06:53:04;;;;;;;4.53;1.40;;;3.10;87.70;;;;;;5032018;28;20988;-71
2022/02/07 06:55:29;;;;;;;6.53;1.77;;;3.10;87.10;;;;;;5025474;28;20189;-72
2022/02/07 06:57:55;;;;;;;3.43;1.70;;;3.10;87.40;;;;;;5031142;28;20200;-71
2022/02/07 07:00:21;;;;;;;4.83;1.50;;;3.20;87.70;;;;;;5022840;28;20259;-70
2022/02/07 07:02:48;;;;;;;3.00;1.50;;;3.20;87.80;;;;;;5032064;28;20656;-71
2022/02/07 07:05:20;;;;;;;2.37;1.23;;;3.10;87.80;;;;;;5028732;28;20189;-72
2022/02/07 07:07:47;;;;;;;2.73;1.53;;;3.10;87.60;;;;;;5027529;28;20558;-71
2022/02/07 07:10:14;;;;;;;13.27;2.23;;;3.20;87.40;;;;;;5029953;28;20815;-70
2022/02/07 07:12:43;;;;;;;7.50;1.40;;;3.20;87.30;;;;;;5033808;28;20424;-70
2022/02/07 07:15:38;;;;;;;4.37;1.40;;;3.20;87.30;;;;;;5032337;28;20655;-71
2022/02/07 07:17:55;;;;;;;14.67;1.97;;;3.30;87.40;;;;;;5030719;28;20423;-71
2022/02/07 07:20:21;;;;;;;3.43;1.73;;;3.20;86.90;;;;;;5029521;28;20444;-69
2022/02/07 07:22:47;;;;;;;5.47;1.73;;;3.30;87.00;;;;;;5026014;28;20428;-70
2022/02/07 07:25:16;;;;;;;5.97;1.40;;;3.30;87.00;;;;;;5028606;28;20776;-71
2022/02/07 07:30:24;;;;;;;3.90;2.33;;;3.20;87.00;;;;;;5034222;28;20534;-70
2022/02/07 07:32:50;;;;;;;2.70;1.27;;;3.30;87.40;;;;;;5031637;28;20431;-70
2022/02/07 07:35:15;;;;;;;4.43;2.13;;;3.30;87.60;;;;;;5029101;28;20428;-72
2022/02/07 07:37:41;;;;;;;7.17;1.50;;;3.30;87.30;;;;;;5028476;28;20800;-71
2022/02/07 07:40:08;;;;;;;3.70;1.70;;;3.30;87.70;;;;;;5021993;28;20205;-72
2022/02/07 07:42:34;;;;;;;6.03;1.70;;;3.30;87.70;;;;;;5029290;28;20189;-70
2022/02/07 07:44:59;;;;;;;3.20;1.60;;;3.20;88.00;;;;;;5028477;28;20485;-72
2022/02/07 07:47:29;;;;;;;8.07;1.53;;;3.20;87.40;;;;;;5021589;28;20221;-72
2022/02/07 07:50:32;;;;;;;6.57;1.60;;;3.20;87.10;;;;;;5023476;28;20501;-71
2022/02/07 08:03:20;;;;;;;15.23;2.10;;;3.10;88.10;;;;;;5028326;28;20430;-72
2022/02/07 08:05:55;;;;;;;6.10;1.77;;;3.10;88.00;;;;;;5027596;28;20486;-72
2022/02/07 08:08:30;;;;;;;2.57;1.80;;;3.20;87.80;;;;;;5025813;28;20973;-70
2022/02/07 08:11:11;;;;;;;12.13;1.93;;;3.20;87.70;;;;;;5028511;28;20442;-71
2022/02/07 08:13:40;;;;;;;3.88;1.70;;;3.30;87.60;;;;;;5029439;28;20427;-72
2022/02/07 08:16:06;;;;;;;6.40;2.17;;;3.30;87.30;;;;;;5028926;28;20532;-72
2022/02/07 08:18:32;;;;;;;4.97;2.03;;;3.30;86.80;;;;;;5029124;28;20482;-72
2022/02/07 08:20:58;;;;;;;5.27;1.80;;;3.30;85.90;;;;;;5029345;28;20177;-73
2022/02/07 08:23:24;;;;;;;4.32;1.88;;;3.30;86.00;;;;;;5029684;28;20169;-73
2022/02/07 08:25:52;;;;;;;5.00;1.77;;;3.30;85.70;;;;;;5027193;28;20269;-70
2022/02/07 08:28:18;;;;;;;6.50;1.50;;;3.40;85.60;;;;;;5029204;28;20201;-72
2022/02/07 08:30:43;;;;;;;4.43;1.37;;;3.40;85.00;;;;;;5033160;28;20903;-72
2022/02/07 08:33:09;;;;;;;2.80;1.60;;;3.40;85.00;;;;;;5033036;28;20416;-71
2022/02/07 08:35:35;;;;;;;5.00;1.93;;;3.40;85.30;;;;;;5032805;28;20217;-70
2022/02/07 08:38:01;;;;;;;3.23;1.33;;;3.50;85.20;;;;;;5033364;28;20177;-71
2022/02/07 08:40:27;;;;;;;4.10;1.90;;;3.50;84.90;;;;;;5031202;28;20197;-71
2022/02/07 08:42:54;;;;;;;9.13;2.90;;;3.60;84.30;;;;;;5031918;28;20428;-73
2022/02/07 08:45:21;;;;;;;7.33;2.33;;;3.70;84.10;;;;;;5025231;28;20451;-74
2022/02/07 08:47:47;;;;;;;3.13;1.23;;;3.70;83.80;;;;;;5028455;28;20591;-74
2022/02/07 08:50:13;;;;;;;3.47;1.63;;;3.80;82.80;;;;;;5024895;28;20442;-74
2022/02/07 08:52:43;;;;;;;5.63;1.33;;;3.80;82.50;;;;;;5033283;28;20843;-74
2022/02/07 08:55:17;;;;;;;13.13;2.03;;;3.90;82.20;;;;;;5032050;28;20416;-73
2022/02/07 08:57:46;;;;;;;8.33;2.00;;;4.00;82.20;;;;;;5031351;28;20420;-72
2022/02/07 09:00:24;;;;;;;4.23;1.70;;;4.20;82.10;;;;;;5032788;28;20812;-74
2022/02/07 09:05:53;;;;;;;4.03;1.70;;;4.50;81.10;;;;;;5032194;28;20416;-73
2022/02/07 09:10:43;;;;;;;4.40;2.30;;;4.60;78.90;;;;;;5034645;28;20442;-72
2022/02/07 09:13:09;;;;;;;6.37;1.60;;;4.60;78.00;;;;;;5035361;28;20448;-71
2022/02/07 09:18:13;;;;;;;3.17;1.43;;;4.80;78.00;;;;;;5032378;28;20516;-73
2022/02/07 09:20:43;;;;;;;2.93;1.40;;;4.80;77.60;;;;;;5030363;28;20451;-73
2022/02/07 09:23:09;;;;;;;3.07;1.20;;;4.90;77.40;;;;;;5032874;28;21041;-73
2022/02/07 09:25:35;;;;;;;7.10;1.70;;;4.80;77.30;;;;;;5032362;28;20419;-73
2022/02/07 09:28:01;;;;;;;5.73;2.73;;;4.80;77.40;;;;;;5031883;28;20824;-75
2022/02/07 09:30:28;;;;;;;5.23;1.90;;;4.90;77.70;;;;;;5034566;28;20447;-74
2022/02/07 09:32:54;;;;;;;11.83;1.97;;;4.80;76.40;;;;;;5026205;28;20424;-74
2022/02/07 09:35:20;;;;;;;5.37;2.00;;;4.70;76.20;;;;;;5032777;28;20502;-73
2022/02/07 09:37:46;;;;;;;7.20;2.07;;;4.80;77.40;;;;;;5032943;28;20420;-74
2022/02/07 09:40:13;;;;;;;8.40;1.87;;;4.90;75.90;;;;;;5034244;28;20759;-71
2022/02/07 09:42:42;;;;;;;4.97;1.77;;;4.90;76.20;;;;;;5031994;28;20787;-71
2022/02/07 09:45:28;;;;;;;6.30;1.77;;;4.90;76.80;;;;;;5031100;28;20408;-72
2022/02/07 09:47:54;;;;;;;5.40;2.10;;;5.00;75.90;;;;;;5025939;28;20460;-69
2022/02/07 09:50:20;;;;;;;7.97;2.07;;;5.10;74.80;;;;;;5031357;28;20981;-72
2022/02/07 09:52:45;;;;;;;6.57;2.20;;;4.90;74.20;;;;;;5030186;28;20424;-71
2022/02/07 09:55:11;;;;;;;7.53;2.30;;;4.90;74.80;;;;;;5030886;28;20181;-73
2022/02/07 09:57:37;;;;;;;5.40;2.00;;;4.80;74.90;;;;;;5029690;28;20182;-72
2022/02/07 10:00:07;;;;;;;6.07;1.80;;;4.90;75.80;;;;;;5030909;28;20443;-73
2022/02/07 10:05:22;;;;;;;7.60;2.27;;;5.20;75.10;;;;;;5031352;28;20431;-72
2022/02/07 10:08:09;;;;;;;7.07;2.00;;;5.30;74.80;;;;;;5031653;28;20878;-74
2022/02/07 10:10:51;;;;;;;3.93;1.80;;;5.40;72.70;;;;;;5027746;28;20478;-74
2022/02/07 10:13:35;;;;;;;6.33;1.77;;;5.40;73.00;;;;;;5031940;28;20423;-74
2022/02/07 10:16:21;;;;;;;9.80;1.30;;;5.50;72.30;;;;;;5033356;28;20439;-74
2022/02/07 10:19:11;;;;;;;5.00;1.73;;;5.40;71.80;;;;;;5032280;28;20455;-74
2022/02/07 10:48:48;;;;;;;6.23;2.30;;;5.60;71.40;;;;;;5030387;28;20474;-72
2022/02/07 10:51:30;;;;;;;9.33;2.73;;;5.70;71.70;;;;;;5030159;28;20423;-72
2022/02/07 10:54:03;;;;;;;5.57;2.13;;;5.70;72.10;;;;;;5030273;28;20449;-71
2022/02/07 10:56:41;;;;;;;9.70;2.20;;;5.80;72.00;;;;;;5025254;28;20882;-72
2022/02/07 10:59:10;;;;;;;3.87;1.97;;;5.80;71.00;;;;;;5025041;28;20540;-70
2022/02/07 11:04:22;;;;;;;5.17;2.40;;;6.40;70.20;;;;;;5037474;28;20420;-72
2022/02/07 11:06:51;;;;;;;6.43;2.10;;;6.90;68.20;;;;;;5039067;28;20459;-71
2022/02/07 11:09:33;;;;;;;5.87;2.00;;;7.50;65.00;;;;;;5031768;28;20475;-72
2022/02/07 11:27:49;;;;;;;3.53;1.63;;;6.50;67.30;;;;;;5031104;28;20460;-71
2022/02/07 11:30:17;;;;;;;5.27;2.10;;;6.30;67.50;;;;;;5027074;28;20511;-71
2022/02/07 11:32:47;;;;;;;4.73;2.03;;;6.30;67.70;;;;;;5032583;28;20423;-68
2022/02/07 11:35:19;;;;;;;6.50;1.90;;;6.30;68.00;;;;;;5030563;28;20514;-69
2022/02/07 11:37:59;;;;;;;14.03;2.17;;;6.10;67.60;;;;;;5032501;28;20431;-70
2022/02/07 11:40:36;;;;;;;8.93;2.03;;;6.00;68.00;;;;;;5031522;28;20439;-68
2022/02/07 11:43:18;;;;;;;4.43;1.60;;;5.90;67.90;;;;;;5028278;28;20430;-69
2022/02/07 11:46:06;;;;;;;3.80;1.90;;;5.80;67.90;;;;;;5034899;28;20450;-72
2022/02/07 11:48:36;;;;;;;5.20;1.90;;;5.90;68.80;;;;;;5035311;28;20570;-70
2022/02/07 11:51:13;;;;;;;4.63;1.33;;;6.00;68.80;;;;;;5033426;28;20416;-71
2022/02/07 11:53:48;;;;;;;3.50;1.43;;;5.90;67.90;;;;;;5027984;28;20416;-72
2022/02/07 11:56:26;;;;;;;9.03;2.40;;;5.90;68.50;;;;;;5031525;28;20481;-70
2022/02/07 11:59:01;;;;;;;10.37;1.93;;;5.90;68.80;;;;;;5031304;28;20567;-70
2022/02/07 12:01:57;;;;;;;6.93;2.00;;;5.90;68.60;;;;;;5029692;28;20427;-70
2022/02/07 12:04:43;;;;;;;4.70;2.10;;;5.90;69.10;;;;;;5029912;28;20474;-70
2022/02/07 12:07:15;;;;;;;6.30;2.17;;;6.00;68.90;;;;;;5028919;28;20556;-71
2022/02/07 12:09:59;;;;;;;6.60;1.90;;;6.00;69.10;;;;;;5030788;28;20475;-69
2022/02/07 12:12:44;;;;;;;5.47;1.90;;;6.00;68.50;;;;;;5035118;28;20443;-71
2022/02/07 12:15:16;;;;;;;8.70;2.03;;;5.90;68.90;;;;;;5036090;28;20514;-71
2022/02/07 12:17:45;;;;;;;10.93;2.20;;;6.00;69.20;;;;;;5035588;28;20529;-73
2022/02/07 12:20:15;;;;;;;4.10;1.70;;;6.00;69.20;;;;;;5034802;28;20439;-69
2022/02/07 12:22:58;;;;;;;5.67;2.33;;;6.00;68.80;;;;;;5034338;28;20427;-71
2022/02/07 12:25:30;;;;;;;3.23;1.50;;;6.00;68.50;;;;;;5033912;28;20419;-69
2022/02/07 12:28:04;;;;;;;6.83;1.97;;;6.00;68.00;;;;;;5033071;28;20563;-69
2022/02/07 12:30:32;;;;;;;2.47;1.50;;;6.00;68.60;;;;;;5034405;28;20435;-68
2022/02/07 12:33:04;;;;;;;8.80;2.20;;;6.10;68.80;;;;;;5031164;28;20423;-70
2022/02/07 12:35:30;;;;;;;5.20;1.50;;;6.10;68.20;;;;;;5033361;28;20420;-70
2022/02/07 12:37:56;;;;;;;4.50;1.57;;;6.10;68.30;;;;;;5033545;28;20427;-69
2022/02/07 12:40:23;;;;;;;7.67;1.90;;;6.20;68.50;;;;;;5034860;28;20810;-69
2022/02/07 12:42:52;;;;;;;6.30;2.50;;;6.20;68.50;;;;;;5034486;28;20412;-71
2022/02/07 12:45:25;;;;;;;6.17;2.10;;;6.20;68.90;;;;;;5034101;28;20424;-71
2022/02/07 12:47:56;;;;;;;5.80;2.30;;;6.40;68.60;;;;;;5036083;28;20996;-69
2022/02/07 12:50:23;;;;;;;8.93;2.60;;;6.30;68.50;;;;;;5038041;28;20477;-70
2022/02/07 12:52:49;;;;;;;7.03;2.23;;;6.30;69.20;;;;;;5033698;28;20450;-71
2022/02/07 12:55:16;;;;;;;5.80;1.77;;;6.40;69.20;;;;;;5030113;28;20436;-71
2022/02/07 12:57:44;;;;;;;3.17;1.60;;;6.40;68.60;;;;;;5032764;28;20958;-69
2022/02/07 13:00:13;;;;;;;10.07;2.90;;;6.50;69.10;;;;;;5032441;28;20432;-71
2022/02/07 13:02:43;;;;;;;6.43;2.30;;;6.40;68.90;;;;;;5033991;28;20436;-72
2022/02/07 13:05:14;;;;;;;6.30;2.27;;;6.40;69.10;;;;;;5033116;28;20424;-70
2022/02/07 13:07:45;;;;;;;8.50;2.50;;;6.30;70.10;;;;;;5032212;28;20468;-71
2022/02/07 13:10:13;;;;;;;6.40;2.17;;;6.30;70.20;;;;;;5032246;28;20444;-69
2022/02/07 13:15:29;;;;;;;5.60;2.40;;;6.20;70.80;;;;;;5029913;28;20407;-70
2022/02/07 13:18:02;;;;;;;7.80;2.73;;;6.10;71.00;;;;;;5031310;28;20538;-71
2022/02/07 13:20:28;;;;;;;7.53;2.07;;;6.00;71.60;;;;;;5032361;28;20450;-70
2022/02/07 13:23:01;;;;;;;7.77;2.80;;;5.90;71.40;;;;;;5025906;28;20443;-70
2022/02/07 13:25:39;;;;;;;8.03;2.50;;;6.00;72.00;;;;;;5034465;28;20431;-69
2022/02/07 13:28:09;;;;;;;6.57;1.90;;;6.00;71.70;;;;;;5026622;28;20896;-68
2022/02/07 13:30:39;;;;;;;6.17;2.13;;;5.90;72.30;;;;;;5033032;28;20841;-72
2022/02/07 13:33:05;;;;;;;3.17;2.10;;;5.90;72.10;;;;;;5032767;28;20412;-70
2022/02/07 13:35:42;;;;;;;9.33;2.07;;;5.80;72.30;;;;;;5032088;28;20511;-69
2022/02/07 13:38:09;;;;;;;4.77;2.23;;;5.90;72.70;;;;;;5033045;28;20430;-69
2022/02/07 13:40:46;;;;;;;3.80;1.90;;;6.00;73.20;;;;;;5031086;28;20439;-69
2022/02/07 13:43:27;;;;;;;9.37;2.20;;;6.10;72.00;;;;;;5032912;28;20420;-72
2022/02/07 13:46:04;;;;;;;4.30;1.60;;;6.20;71.70;;;;;;5024419;28;20845;-72
2022/02/07 13:48:32;;;;;;;3.40;1.90;;;6.10;71.30;;;;;;5032525;28;20467;-70
2022/02/07 13:51:00;;;;;;;7.27;2.33;;;6.10;71.40;;;;;;5031863;28;20814;-69
2022/02/07 13:53:27;;;;;;;3.00;1.90;;;6.10;71.60;;;;;;5032334;28;20501;-68
2022/02/07 13:55:56;;;;;;;3.37;2.57;;;6.30;71.40;;;;;;5026630;28;20438;-71
2022/02/07 13:58:33;;;;;;;5.03;1.93;;;6.30;70.80;;;;;;5034109;28;20942;-70
2022/02/07 14:01:09;;;;;;;5.23;2.07;;;6.30;70.50;;;;;;5025259;28;20455;-72
2022/02/07 14:03:45;;;;;;;17.07;3.10;;;6.40;70.10;;;;;;5034060;28;20451;-69
2022/02/07 14:06:12;;;;;;;3.73;1.70;;;6.30;70.70;;;;;;5033144;28;20442;-68
2022/02/07 14:08:55;;;;;;;5.27;1.83;;;6.20;71.10;;;;;;5032105;28;21358;-70
2022/02/07 14:11:29;;;;;;;3.33;1.80;;;6.30;71.60;;;;;;5032493;28;20443;-70
2022/02/07 14:14:04;;;;;;;3.80;2.00;;;6.50;71.30;;;;;;5027211;28;20898;-70
2022/02/07 14:16:32;;;;;;;2.43;1.90;;;6.80;70.20;;;;;;5029520;28;20956;-71
2022/02/07 14:18:58;;;;;;;10.23;2.20;;;6.90;69.50;;;;;;5033723;28;20443;-70
2022/02/07 14:21:26;;;;;;;5.53;1.97;;;7.00;69.10;;;;;;5033144;28;20491;-70
2022/02/07 14:23:54;;;;;;;4.33;1.80;;;7.10;68.60;;;;;;5033967;28;20949;-69
2022/02/07 14:26:22;;;;;;;6.83;1.80;;;7.00;68.30;;;;;;5031745;28;20501;-68
2022/02/07 14:28:53;;;;;;;4.80;2.10;;;6.70;68.50;;;;;;5032394;28;20523;-71
2022/02/07 14:31:20;;;;;;;2.57;1.70;;;6.70;69.70;;;;;;5032222;28;20421;-69
2022/02/07 14:33:47;;;;;;;3.60;1.80;;;6.80;69.70;;;;;;5031977;28;20423;-70
2022/02/07 14:36:13;;;;;;;5.57;1.73;;;6.80;69.10;;;;;;5032386;28;20416;-70
2022/02/07 14:38:39;;;;;;;4.97;1.80;;;6.90;69.50;;;;;;5032072;28;20478;-71
2022/02/07 14:41:06;;;;;;;5.63;2.57;;;7.00;68.90;;;;;;5031448;28;20887;-70
2022/02/07 14:43:34;;;;;;;8.50;2.13;;;7.20;68.50;;;;;;5032311;28;20420;-69
2022/02/07 14:48:35;;;;;;;8.37;2.20;;;7.10;67.50;;;;;;5034183;28;20471;-71
2022/02/07 14:51:06;;;;;;;2.60;1.80;;;7.10;67.70;;;;;;5032530;28;20416;-71
2022/02/07 14:53:32;;;;;;;4.30;1.70;;;6.90;67.60;;;;;;5030980;28;20420;-70
2022/02/07 14:55:58;;;;;;;9.17;1.93;;;6.80;67.90;;;;;;5031371;28;20456;-71
2022/02/07 14:58:24;;;;;;;6.07;2.30;;;6.80;68.20;;;;;;5032137;28;20525;-70
2022/02/07 15:00:52;;;;;;;6.63;2.13;;;6.80;68.20;;;;;;5031854;28;20201;-71
2022/02/07 15:03:20;;;;;;;9.73;2.70;;;6.70;68.30;;;;;;5031373;28;20196;-73
2022/02/07 15:05:47;;;;;;;14.17;2.97;;;6.50;69.10;;;;;;5033376;28;20431;-70
2022/02/07 15:08:13;;;;;;;4.67;1.90;;;6.50;69.10;;;;;;5034139;28;20516;-69
2022/02/07 15:10:38;;;;;;;4.83;2.13;;;6.50;68.80;;;;;;5032171;28;20446;-70
2022/02/07 15:13:06;;;;;;;6.10;2.40;;;6.40;68.90;;;;;;5032215;28;20439;-72
2022/02/07 15:15:32;;;;;;;6.33;2.40;;;6.30;69.40;;;;;;5033973;28;20592;-70
2022/02/07 15:18:02;;;;;;;6.87;2.10;;;6.20;69.50;;;;;;5033972;28;20427;-72
2022/02/07 15:20:28;;;;;;;8.00;1.90;;;6.20;70.20;;;;;;5033163;28;20450;-70
2022/02/07 15:22:54;;;;;;;5.40;2.70;;;6.00;70.20;;;;;;5033053;28;20454;-69
2022/02/07 15:25:29;;;;;;;3.20;1.93;;;5.90;70.50;;;;;;5032858;28;20516;-71
2022/02/07 15:27:55;;;;;;;6.87;2.27;;;5.90;70.50;;;;;;5024325;28;20200;-70
2022/02/07 15:30:21;;;;;;;6.10;2.30;;;5.80;71.00;;;;;;5033562;28;20436;-71
2022/02/07 15:32:50;;;;;;;8.17;2.40;;;5.80;71.40;;;;;;5034663;28;20203;-70
2022/02/07 15:35:17;;;;;;;2.97;1.97;;;5.80;71.40;;;;;;5033559;28;20502;-71
2022/02/07 15:37:42;;;;;;;12.67;2.70;;;5.70;71.30;;;;;;5031429;28;20450;-69
2022/02/07 15:40:10;;;;;;;11.60;2.70;;;5.60;71.10;;;;;;5029341;28;20454;-69
2022/02/07 15:42:36;;;;;;;5.03;1.93;;;5.50;71.70;;;;;;5030133;28;20192;-71
2022/02/07 15:45:04;;;;;;;5.93;2.13;;;5.40;71.80;;;;;;5030167;28;20416;-70
2022/02/07 15:47:34;;;;;;;5.03;2.20;;;5.40;72.00;;;;;;5030959;28;20848;-70
2022/02/07 15:50:04;;;;;;;8.23;2.57;;;5.40;72.10;;;;;;5030672;28;21003;-71
2022/02/07 15:52:30;;;;;;;9.70;2.10;;;5.40;72.30;;;;;;5031125;28;20567;-69
2022/02/07 15:54:57;;;;;;;4.33;2.50;;;5.30;72.60;;;;;;5030356;28;20962;-71
2022/02/07 15:57:22;;;;;;;11.20;3.00;;;5.30;72.70;;;;;;5030673;28;20187;-69